createdAt,value
2022-11-28T00:00:10.656Z,80066.22
2022-11-28T00:01:48.672Z,80070.16
2022-11-28T00:03:23.421Z,80080.06
2022-11-28T00:04:57.115Z,80068.19
2022-11-28T00:06:30.552Z,80078.09
2022-11-28T00:08:04.637Z,80070.16
2022-11-28T00:09:38.238Z,80078.09
2022-11-28T00:11:14.847Z,80074.13
2022-11-28T00:12:48.031Z,80084.03
2022-11-28T00:14:21.790Z,80078.09
2022-11-28T00:16:06.795Z,80070.16
2022-11-28T00:17:40.817Z,80058.28
2022-11-28T00:19:15.320Z,80074.13
2022-11-28T00:20:48.645Z,80074.13
2022-11-28T00:22:22.588Z,80082.03
2022-11-28T00:23:57.235Z,80080.06
2022-11-28T00:25:31.327Z,80082.03
2022-11-28T00:27:04.657Z,80078.09
2022-11-28T00:28:38.733Z,80070.16
2022-11-28T00:30:13.086Z,80078.09
2022-11-28T00:31:46.529Z,80078.09
2022-11-28T00:33:20.526Z,80086.00
2022-11-28T00:34:54.225Z,80082.03
2022-11-28T00:36:27.747Z,80082.03
2022-11-28T00:38:03.315Z,80084.03
2022-11-28T00:39:36.678Z,80078.09
2022-11-28T00:41:14.608Z,80082.03
2022-11-28T00:42:48.557Z,80082.03
2022-11-28T00:44:23.472Z,80084.03
2022-11-28T00:45:57.329Z,80087.97
2022-11-28T00:47:30.866Z,80091.94
2022-11-28T00:49:04.773Z,80086.00
2022-11-28T00:50:38.316Z,80086.00
2022-11-28T00:52:11.849Z,80101.84
2022-11-28T00:53:48.445Z,80093.91
2022-11-28T00:55:21.969Z,80105.78
2022-11-28T00:56:56.117Z,80105.78
2022-11-28T00:58:29.767Z,80105.78
2022-11-28T01:00:09.890Z,80111.72
2022-11-28T01:01:44.977Z,80121.63
2022-11-28T01:03:18.719Z,80133.50
2022-11-28T01:04:52.380Z,80117.66
2022-11-28T01:06:31.557Z,80109.75
2022-11-28T01:08:05.327Z,80121.63
2022-11-28T01:09:38.779Z,80141.41
2022-11-28T01:11:13.757Z,80129.53
2022-11-28T01:12:47.548Z,80145.38
2022-11-28T01:14:25.564Z,80139.44
2022-11-28T01:15:59.724Z,80141.41
2022-11-28T01:17:33.146Z,80143.38
2022-11-28T01:19:07.893Z,80145.38
2022-11-28T01:20:41.736Z,80149.34
2022-11-28T01:22:15.078Z,80141.41
2022-11-28T01:23:48.422Z,80135.47
2022-11-28T01:25:22.168Z,80145.38
2022-11-28T01:26:56.226Z,80141.41
2022-11-28T01:28:30.209Z,80137.47
2022-11-28T01:30:06.898Z,80153.28
2022-11-28T01:31:43.399Z,80149.34
2022-11-28T01:33:17.110Z,80145.38
2022-11-28T01:34:50.642Z,80145.38
2022-11-28T01:36:25.469Z,80141.41
2022-11-28T01:37:59.243Z,80145.38
2022-11-28T01:39:33.077Z,80145.38
2022-11-28T01:41:07.449Z,80149.34
2022-11-28T01:42:41.219Z,80159.22
2022-11-28T01:44:15.104Z,80155.25
2022-11-28T01:45:52.370Z,80147.34
2022-11-28T01:47:30.387Z,80161.22
2022-11-28T01:49:23.270Z,80159.22
2022-11-28T01:51:01.801Z,80186.94
2022-11-28T01:52:39.521Z,80190.88
2022-11-28T01:54:15.236Z,80167.13
2022-11-28T01:56:01.649Z,80157.25
2022-11-28T01:57:35.946Z,80157.25
2022-11-28T01:59:12.219Z,80151.31
2022-11-28T02:00:47.029Z,80155.25
2022-11-28T02:02:34.576Z,80155.25
2022-11-28T02:04:08.674Z,80145.38
2022-11-28T02:05:42.372Z,80157.25
2022-11-28T02:07:19.902Z,80153.28
2022-11-28T02:08:55.219Z,80157.25
2022-11-28T02:10:41.465Z,80159.22
2022-11-28T02:12:36.936Z,80159.22
2022-11-28T02:14:28.732Z,80161.22
2022-11-28T02:16:14.504Z,80157.25
2022-11-28T02:18:18.875Z,80165.16
2022-11-28T02:19:58.767Z,80157.25
2022-11-28T02:21:47.850Z,80161.22
2022-11-28T02:23:36.153Z,80157.25
2022-11-28T02:25:21.791Z,80165.16
2022-11-28T02:27:05.696Z,80155.25
2022-11-28T02:28:42.451Z,80151.31
2022-11-28T02:30:18.822Z,80155.25
2022-11-28T02:32:12.688Z,80151.31
2022-11-28T02:33:54.781Z,80149.34
2022-11-28T02:35:45.047Z,80141.41
2022-11-28T02:37:26.278Z,80135.47
2022-11-28T02:39:19.174Z,80137.47
2022-11-28T02:41:02.860Z,80143.38
2022-11-28T02:43:00.129Z,80141.41
2022-11-28T02:44:37.261Z,80135.47
2022-11-28T02:46:17.372Z,80127.56
2022-11-28T02:47:59.739Z,80139.44
2022-11-28T02:49:36.202Z,80133.50
2022-11-28T02:51:40.214Z,80129.53
2022-11-28T02:53:16.051Z,80127.56
2022-11-28T02:54:52.187Z,80133.50
2022-11-28T02:56:26.633Z,80133.50
2022-11-28T02:58:00.448Z,80151.31
2022-11-28T02:59:34.055Z,80129.53
2022-11-28T03:01:18.750Z,80129.53
2022-11-28T03:03:16.855Z,80125.59
2022-11-28T03:05:18.184Z,80123.59
2022-11-28T03:07:33.663Z,80133.50
2022-11-28T03:09:45.803Z,80129.53
2022-11-28T03:11:28.161Z,80129.53
2022-11-28T03:13:23.148Z,80129.53
2022-11-28T03:15:02.945Z,80127.56
2022-11-28T03:17:04.466Z,80129.53
2022-11-28T03:18:50.773Z,80135.47
2022-11-28T03:20:57.654Z,80141.41
2022-11-28T03:22:34.592Z,80139.44
2022-11-28T03:24:30.074Z,80145.38
2022-11-28T03:26:33.310Z,80141.41
2022-11-28T03:28:10.510Z,80145.38
2022-11-28T03:29:55.595Z,80151.31
2022-11-28T03:31:39.658Z,80157.25
2022-11-28T03:33:17.024Z,80182.97
2022-11-28T03:35:01.789Z,80155.25
2022-11-28T03:36:45.205Z,80161.22
2022-11-28T03:38:45.771Z,80155.25
2022-11-28T03:40:27.904Z,80165.16
2022-11-28T03:42:12.650Z,80175.06
2022-11-28T03:43:55.334Z,80181.00
2022-11-28T03:45:33.139Z,80184.97
2022-11-28T03:47:07.803Z,80179.00
2022-11-28T03:48:47.114Z,80194.84
2022-11-28T03:50:32.014Z,80184.97
2022-11-28T03:52:08.895Z,80192.88
2022-11-28T03:53:57.288Z,80186.94
2022-11-28T03:55:49.952Z,80177.03
2022-11-28T03:57:43.207Z,80177.03
2022-11-28T03:59:31.032Z,80179.00
2022-11-28T04:01:17.661Z,80186.94
2022-11-28T04:02:54.591Z,80192.88
2022-11-28T04:04:31.758Z,80182.97
2022-11-28T04:06:52.124Z,80196.84
2022-11-28T04:08:36.400Z,80194.84
2022-11-28T04:10:29.492Z,80190.88
2022-11-28T04:12:11.304Z,80196.84
2022-11-28T04:14:16.021Z,80188.91
2022-11-28T04:16:19.938Z,80198.81
2022-11-28T04:18:06.396Z,80204.75
2022-11-28T04:19:50.590Z,80208.72
2022-11-28T04:21:40.526Z,80206.72
2022-11-28T04:23:18.024Z,80218.59
2022-11-28T04:25:21.673Z,80224.53
2022-11-28T04:27:04.965Z,80214.66
2022-11-28T04:28:40.960Z,80208.72
2022-11-28T04:30:15.242Z,80206.72
2022-11-28T04:31:53.344Z,80206.72
2022-11-28T04:33:30.494Z,80202.78
2022-11-28T04:35:21.358Z,80192.88
2022-11-28T04:37:00.001Z,80188.91
2022-11-28T04:38:38.765Z,80184.97
2022-11-28T04:40:14.267Z,80184.97
2022-11-28T04:42:06.684Z,80218.59
2022-11-28T04:43:46.345Z,80173.09
2022-11-28T04:45:35.042Z,80173.09
2022-11-28T04:47:08.925Z,80186.94
2022-11-28T04:48:43.236Z,80161.22
2022-11-28T04:50:21.477Z,80169.13
2022-11-28T04:52:04.278Z,80153.28
2022-11-28T04:53:56.227Z,80149.34
2022-11-28T04:55:47.113Z,80141.41
2022-11-28T04:57:41.244Z,80141.41
2022-11-28T04:59:19.520Z,80145.38
2022-11-28T05:01:00.831Z,80133.50
2022-11-28T05:02:36.243Z,80127.56
2022-11-28T05:04:10.229Z,80119.63
2022-11-28T05:05:52.097Z,80119.63
2022-11-28T05:07:30.934Z,80123.59
2022-11-28T05:09:05.449Z,80107.75
2022-11-28T05:10:39.528Z,80109.75
2022-11-28T05:12:13.336Z,80101.84
2022-11-28T05:13:47.587Z,80093.91
2022-11-28T05:15:21.228Z,80082.03
2022-11-28T05:16:57.827Z,80091.94
2022-11-28T05:18:31.178Z,80087.97
2022-11-28T05:20:05.823Z,80093.91
2022-11-28T05:21:39.263Z,80086.00
2022-11-28T05:23:13.441Z,80084.03
2022-11-28T05:24:47.112Z,80086.00
2022-11-28T05:26:22.146Z,80066.22
2022-11-28T05:27:55.670Z,80086.00
2022-11-28T05:29:33.317Z,80093.91
2022-11-28T05:31:10.661Z,80117.66
2022-11-28T05:32:44.515Z,80091.94
2022-11-28T05:34:17.994Z,80103.81
2022-11-28T05:35:51.742Z,80113.72
2022-11-28T05:37:26.686Z,80115.69
2022-11-28T05:39:00.424Z,80111.72
2022-11-28T05:40:34.813Z,80107.75
2022-11-28T05:42:08.862Z,80101.84
2022-11-28T05:43:42.742Z,80113.72
2022-11-28T05:45:16.857Z,80117.66
2022-11-28T05:46:51.174Z,80111.72
2022-11-28T05:48:25.947Z,80111.72
2022-11-28T05:49:59.803Z,80107.75
2022-11-28T05:51:38.461Z,80111.72
2022-11-28T05:53:15.627Z,80103.81
2022-11-28T05:54:49.473Z,80101.84
2022-11-28T05:56:29.875Z,80113.72
2022-11-28T05:58:03.846Z,80113.72
2022-11-28T05:59:38.359Z,80105.78
2022-11-28T06:01:18.260Z,80087.97
2022-11-28T06:02:55.922Z,80084.03
2022-11-28T06:04:34.869Z,80078.09
2022-11-28T06:06:20.224Z,80066.22
2022-11-28T06:07:54.534Z,80086.00
2022-11-28T06:09:28.314Z,80084.03
2022-11-28T06:11:05.447Z,80078.09
2022-11-28T06:12:38.934Z,80082.03
2022-11-28T06:14:12.782Z,80084.03
2022-11-28T06:15:46.755Z,80080.06
2022-11-28T06:17:20.365Z,80070.16
2022-11-28T06:19:00.966Z,80056.31
2022-11-28T06:20:37.964Z,80042.47
2022-11-28T06:22:12.280Z,80042.47
2022-11-28T06:23:45.973Z,80028.59
2022-11-28T06:25:20.410Z,80022.66
2022-11-28T06:26:55.686Z,80028.59
2022-11-28T06:28:29.293Z,80030.59
2022-11-28T06:30:02.920Z,80030.59
2022-11-28T06:31:36.948Z,80008.81
2022-11-28T06:33:10.815Z,80022.66
2022-11-28T06:34:44.660Z,79989.03
2022-11-28T06:36:19.557Z,79998.91
2022-11-28T06:37:53.528Z,79985.06
2022-11-28T06:39:28.410Z,79963.28
2022-11-28T06:41:06.347Z,79971.22
2022-11-28T06:42:39.998Z,79943.50
2022-11-28T06:44:15.562Z,79947.47
2022-11-28T06:45:50.601Z,79947.47
2022-11-28T06:47:24.834Z,79935.59
2022-11-28T06:48:58.643Z,79937.56
2022-11-28T06:50:33.835Z,79903.91
2022-11-28T06:52:07.823Z,79897.97
2022-11-28T06:53:42.005Z,79903.91
2022-11-28T06:55:18.226Z,79882.16
2022-11-28T06:56:51.733Z,79862.38
2022-11-28T06:58:28.941Z,79860.38
2022-11-28T07:00:06.077Z,79844.56
2022-11-28T07:01:39.960Z,79824.75
2022-11-28T07:03:13.725Z,79812.88
2022-11-28T07:04:47.384Z,79801.00
2022-11-28T07:06:22.666Z,79779.25
2022-11-28T07:07:56.816Z,79793.09
2022-11-28T07:09:30.905Z,79787.16
2022-11-28T07:11:21.745Z,79745.59
2022-11-28T07:12:56.680Z,79757.47
2022-11-28T07:14:34.970Z,79771.31
2022-11-28T07:16:12.784Z,79741.66
2022-11-28T07:17:47.001Z,79745.59
2022-11-28T07:19:23.517Z,79741.66
2022-11-28T07:20:57.515Z,79737.69
2022-11-28T07:22:31.603Z,79747.59
2022-11-28T07:24:05.675Z,79745.59
2022-11-28T07:25:39.292Z,79729.78
2022-11-28T07:27:13.071Z,79723.84
2022-11-28T07:28:47.794Z,79694.16
2022-11-28T07:30:21.367Z,79662.50
2022-11-28T07:31:55.167Z,79644.69
2022-11-28T07:33:29.294Z,79658.53
2022-11-28T07:35:02.814Z,79658.53
2022-11-28T07:36:36.916Z,79680.28
2022-11-28T07:38:13.687Z,79678.31
2022-11-28T07:39:48.469Z,79694.16
2022-11-28T07:41:26.446Z,79706.03
2022-11-28T07:43:00.462Z,79682.28
2022-11-28T07:44:34.108Z,79642.69
2022-11-28T07:46:10.815Z,79656.56
2022-11-28T07:47:44.378Z,79642.69
2022-11-28T07:49:18.310Z,79666.44
2022-11-28T07:50:51.804Z,79632.81
2022-11-28T07:52:25.712Z,79630.81
2022-11-28T07:54:00.869Z,79664.47
2022-11-28T07:55:39.283Z,79678.31
2022-11-28T07:57:15.592Z,79706.03
2022-11-28T07:58:50.095Z,79674.38
2022-11-28T08:00:24.039Z,79682.28
2022-11-28T08:02:00.102Z,79648.63
2022-11-28T08:03:33.589Z,79611.03
2022-11-28T08:05:07.879Z,79638.75
2022-11-28T08:06:43.970Z,79638.75
2022-11-28T08:08:18.326Z,79622.91
2022-11-28T08:09:52.010Z,79611.03
2022-11-28T08:11:26.339Z,79553.66
2022-11-28T08:13:00.048Z,79559.59
2022-11-28T08:14:33.701Z,79541.78
2022-11-28T08:16:15.619Z,79551.66
2022-11-28T08:17:49.628Z,79527.94
2022-11-28T08:19:24.657Z,79488.34
2022-11-28T08:21:09.906Z,79496.25
2022-11-28T08:22:43.442Z,79500.22
2022-11-28T08:24:17.230Z,79504.19
2022-11-28T08:25:51.206Z,79504.19
2022-11-28T08:27:25.737Z,79527.94
2022-11-28T08:29:00.916Z,79502.19
2022-11-28T08:30:35.004Z,79508.13
2022-11-28T08:32:12.042Z,79531.88
2022-11-28T08:33:47.325Z,79551.66
2022-11-28T08:35:20.964Z,79555.63
2022-11-28T08:36:54.807Z,79523.97
2022-11-28T08:38:28.493Z,79504.19
2022-11-28T08:40:02.406Z,79510.13
2022-11-28T08:41:36.213Z,79529.91
2022-11-28T08:43:12.652Z,79482.41
2022-11-28T08:44:46.457Z,79508.13
2022-11-28T08:46:22.732Z,79523.97
2022-11-28T08:47:56.488Z,79504.19
2022-11-28T08:49:30.187Z,79537.81
2022-11-28T08:51:04.575Z,79539.81
2022-11-28T08:52:38.881Z,79539.81
2022-11-28T08:54:13.266Z,79587.28
2022-11-28T08:55:47.171Z,79569.47
2022-11-28T08:57:23.486Z,79547.72
2022-11-28T08:58:57.238Z,79551.66
2022-11-28T09:00:30.794Z,79571.47
2022-11-28T09:02:04.445Z,79571.47
2022-11-28T09:03:38.166Z,79561.56
2022-11-28T09:05:11.730Z,79537.81
2022-11-28T09:06:45.459Z,79543.75
2022-11-28T09:08:24.830Z,79516.06
2022-11-28T09:10:01.725Z,79522.00
2022-11-28T09:11:39.201Z,79510.13
2022-11-28T09:13:13.819Z,79522.00
2022-11-28T09:14:47.456Z,79504.19
2022-11-28T09:16:21.382Z,79522.00
2022-11-28T09:17:55.560Z,79512.09
2022-11-28T09:19:29.405Z,79520.00
2022-11-28T09:21:08.091Z,79520.00
2022-11-28T09:22:42.970Z,79539.81
2022-11-28T09:24:16.253Z,79539.81
2022-11-28T09:25:49.758Z,79569.47
2022-11-28T09:27:23.217Z,79531.88
2022-11-28T09:28:56.805Z,79565.53
2022-11-28T09:30:30.604Z,79571.47
2022-11-28T09:32:04.400Z,79607.09
2022-11-28T09:33:40.941Z,79577.41
2022-11-28T09:35:14.585Z,79605.09
2022-11-28T09:36:48.862Z,79587.28
2022-11-28T09:38:23.710Z,79601.13
2022-11-28T09:40:12.560Z,79607.09
2022-11-28T09:42:16.938Z,79613.00
2022-11-28T09:43:55.031Z,79571.47
2022-11-28T09:45:28.909Z,79583.34
2022-11-28T09:47:06.665Z,79567.50
2022-11-28T09:48:51.425Z,79595.22
2022-11-28T09:50:28.768Z,79599.16
2022-11-28T09:52:20.955Z,79630.81
2022-11-28T09:54:16.529Z,79654.56
2022-11-28T09:55:59.495Z,79686.25
2022-11-28T09:57:44.344Z,79692.16
2022-11-28T09:59:30.204Z,79713.94
2022-11-28T10:01:25.065Z,79721.84
2022-11-28T10:03:29.455Z,79721.84
2022-11-28T10:05:30.243Z,79753.53
2022-11-28T10:07:06.601Z,79753.53
2022-11-28T10:09:05.773Z,79767.38
2022-11-28T10:10:56.013Z,79763.41
2022-11-28T10:12:44.205Z,79797.06
2022-11-28T10:14:33.167Z,79824.75
2022-11-28T10:16:12.972Z,79852.47
2022-11-28T10:18:14.609Z,79846.53
2022-11-28T10:20:12.890Z,79872.25
2022-11-28T10:21:56.390Z,79844.56
2022-11-28T10:23:46.032Z,79876.22
2022-11-28T10:25:37.255Z,79864.34
2022-11-28T10:27:15.027Z,79872.25
2022-11-28T10:28:52.683Z,79907.88
2022-11-28T10:30:29.800Z,79894.03
2022-11-28T10:32:05.295Z,79903.91
2022-11-28T10:34:08.208Z,79897.97
2022-11-28T10:35:54.752Z,79923.72
2022-11-28T10:37:31.749Z,79917.78
2022-11-28T10:39:13.559Z,79905.91
2022-11-28T10:41:08.609Z,79915.78
2022-11-28T10:42:44.614Z,79945.47
2022-11-28T10:44:31.218Z,79947.47
2022-11-28T10:46:48.569Z,79919.75
2022-11-28T10:48:39.642Z,79941.53
2022-11-28T10:50:30.829Z,79943.50
2022-11-28T10:52:20.108Z,79931.63
2022-11-28T10:54:09.659Z,79945.47
2022-11-28T10:56:03.046Z,79947.47
2022-11-28T10:57:56.852Z,79963.28
2022-11-28T11:00:13.595Z,79945.47
2022-11-28T11:01:50.520Z,79953.41
2022-11-28T11:03:33.186Z,79967.25
2022-11-28T11:05:12.424Z,79935.59
2022-11-28T11:07:11.371Z,79929.66
2022-11-28T11:08:51.993Z,79931.63
2022-11-28T11:11:04.305Z,79939.53
2022-11-28T11:12:38.116Z,79925.69
2022-11-28T11:14:12.534Z,79947.47
2022-11-28T11:15:50.042Z,79955.38
2022-11-28T11:17:36.548Z,79951.41
2022-11-28T11:19:26.089Z,79959.34
2022-11-28T11:21:14.615Z,79963.28
2022-11-28T11:23:00.209Z,79959.34
2022-11-28T11:24:37.276Z,79965.28
2022-11-28T11:26:27.011Z,79959.34
2022-11-28T11:28:04.107Z,79959.34
2022-11-28T11:29:38.561Z,79961.31
2022-11-28T11:31:30.553Z,79998.91
2022-11-28T11:33:06.508Z,80002.88
2022-11-28T11:34:48.690Z,80010.78
2022-11-28T11:36:31.295Z,80000.91
2022-11-28T11:38:32.356Z,79996.94
2022-11-28T11:40:22.896Z,80000.91
2022-11-28T11:42:02.566Z,79998.91
2022-11-28T11:43:38.822Z,79998.91
2022-11-28T11:45:31.116Z,80002.88
2022-11-28T11:47:05.617Z,80010.78
2022-11-28T11:48:49.624Z,80000.91
2022-11-28T11:50:25.838Z,80008.81
2022-11-28T11:52:05.523Z,80006.84
2022-11-28T11:53:39.428Z,80006.84
2022-11-28T11:55:19.709Z,80014.75
2022-11-28T11:57:05.877Z,80024.66
2022-11-28T11:58:52.949Z,80024.66
2022-11-28T12:00:38.947Z,80034.53
2022-11-28T12:02:35.895Z,80034.53
2022-11-28T12:04:43.982Z,80058.28
2022-11-28T12:06:14.935Z,80062.25
2022-11-28T12:08:02.545Z,80068.19
2022-11-28T12:09:48.978Z,80078.09
2022-11-28T12:11:46.681Z,80086.00
2022-11-28T12:13:23.459Z,80095.91
2022-11-28T12:14:57.377Z,80113.72
2022-11-28T12:16:39.637Z,80117.66
2022-11-28T12:18:38.755Z,80121.63
2022-11-28T12:20:12.642Z,80131.50
2022-11-28T12:22:04.498Z,80133.50
2022-11-28T12:23:45.838Z,80137.47
2022-11-28T12:25:46.228Z,80137.47
2022-11-28T12:27:42.900Z,80141.41
2022-11-28T12:29:25.714Z,80149.34
2022-11-28T12:31:05.128Z,80149.34
2022-11-28T12:32:57.050Z,80153.28
2022-11-28T12:34:33.461Z,80167.13
2022-11-28T12:36:31.807Z,80177.03
2022-11-28T12:39:06.627Z,80177.03
2022-11-28T12:41:07.719Z,80194.84
2022-11-28T12:43:15.158Z,80200.78
2022-11-28T12:44:55.170Z,80204.75
2022-11-28T12:46:31.836Z,80214.66
2022-11-28T12:48:13.781Z,80220.56
2022-11-28T12:50:14.788Z,80222.56
2022-11-28T12:51:56.776Z,80224.53
2022-11-28T12:54:10.910Z,80244.31
2022-11-28T12:55:53.378Z,80264.13
2022-11-28T12:57:33.960Z,80287.88
2022-11-28T12:59:40.585Z,80303.72
2022-11-28T13:01:14.406Z,80319.53
2022-11-28T13:03:02.410Z,80331.41
2022-11-28T13:05:05.342Z,80347.25
2022-11-28T13:06:46.910Z,80369.03
2022-11-28T13:08:31.857Z,80394.75
2022-11-28T13:10:48.232Z,80412.56
2022-11-28T13:12:33.768Z,80410.59
2022-11-28T13:14:31.269Z,80390.78
2022-11-28T13:16:27.432Z,80376.94
2022-11-28T13:18:19.453Z,80372.97
2022-11-28T13:20:30.524Z,80374.97
2022-11-28T13:22:25.144Z,80365.06
2022-11-28T13:24:09.490Z,80367.03
2022-11-28T13:26:11.895Z,80374.97
2022-11-28T13:28:07.747Z,80394.75
2022-11-28T13:29:53.977Z,80408.59
2022-11-28T13:31:27.695Z,80412.56
2022-11-28T13:33:15.938Z,80416.53
2022-11-28T13:34:50.215Z,80414.53
2022-11-28T13:38:36.969Z,80418.50
2022-11-28T13:40:20.139Z,80438.28
2022-11-28T13:42:36.107Z,80430.38
2022-11-28T13:44:16.884Z,80442.25
2022-11-28T13:45:52.616Z,80438.28
2022-11-28T13:47:28.328Z,80448.19
2022-11-28T13:49:15.122Z,80442.25
2022-11-28T13:51:28.681Z,80446.22
2022-11-28T13:53:22.081Z,80438.28
2022-11-28T13:54:56.167Z,80438.28
2022-11-28T13:56:29.640Z,80430.38
2022-11-28T13:58:22.326Z,80430.38
2022-11-28T14:00:23.384Z,80426.41
2022-11-28T14:02:05.664Z,80426.41
2022-11-28T14:03:59.204Z,80430.38
2022-11-28T14:05:38.429Z,80448.19
2022-11-28T14:07:31.059Z,80430.38
2022-11-28T14:09:07.183Z,80438.28
2022-11-28T14:10:56.812Z,80442.25
2022-11-28T14:12:52.281Z,80458.09
2022-11-28T14:14:50.669Z,80460.06
2022-11-28T14:16:51.605Z,80473.94
2022-11-28T14:18:55.212Z,80473.94
2022-11-28T14:20:46.075Z,80485.81
2022-11-28T14:22:35.538Z,80489.75
2022-11-28T14:24:20.442Z,80495.69
2022-11-28T14:25:55.561Z,80493.72
2022-11-28T14:27:37.334Z,80501.63
2022-11-28T14:29:27.338Z,80519.44
2022-11-28T14:31:26.798Z,80505.59
2022-11-28T14:33:13.509Z,80507.56
2022-11-28T14:34:49.483Z,80513.50
2022-11-28T14:36:25.165Z,80509.56
2022-11-28T14:38:00.026Z,80533.31
2022-11-28T14:39:35.685Z,80509.56
2022-11-28T14:41:15.537Z,80521.44
2022-11-28T14:43:26.856Z,80521.44
2022-11-28T14:45:08.207Z,80564.97
2022-11-28T14:47:06.563Z,80543.19
2022-11-28T14:48:43.081Z,80563.00
2022-11-28T14:50:21.799Z,80564.97
2022-11-28T14:52:41.488Z,80576.84
2022-11-28T14:54:28.022Z,80584.75
2022-11-28T14:56:16.722Z,80592.69
2022-11-28T14:58:02.696Z,80608.53
2022-11-28T14:59:40.332Z,80612.47
2022-11-28T15:01:38.778Z,80600.59
2022-11-28T15:03:39.500Z,80596.66
2022-11-28T15:05:30.393Z,80600.59
2022-11-28T15:07:07.324Z,80600.59
2022-11-28T15:09:04.524Z,80590.72
2022-11-28T15:11:06.229Z,80590.72
2022-11-28T15:13:08.183Z,80588.72
2022-11-28T15:14:42.349Z,80588.72
2022-11-28T15:16:20.656Z,80590.72
2022-11-28T15:17:56.174Z,80580.81
2022-11-28T15:19:39.868Z,80574.88
2022-11-28T15:21:23.965Z,80576.84
2022-11-28T15:22:57.262Z,80576.84
2022-11-28T15:24:38.838Z,80570.91
2022-11-28T15:26:28.412Z,80570.91
2022-11-28T15:28:16.099Z,80572.88
2022-11-28T15:30:04.022Z,80572.88
2022-11-28T15:31:38.561Z,80574.88
2022-11-28T15:33:13.423Z,80576.84
2022-11-28T15:34:56.362Z,80576.84
2022-11-28T15:36:30.869Z,80570.91
2022-11-28T15:38:08.064Z,80572.88
2022-11-28T15:39:43.531Z,80582.78
2022-11-28T15:41:26.187Z,80600.59
2022-11-28T15:43:01.908Z,80598.63
2022-11-28T15:44:38.468Z,80592.69
2022-11-28T15:46:20.638Z,80592.69
2022-11-28T15:47:56.540Z,80600.59
2022-11-28T15:49:36.300Z,80598.63
2022-11-28T15:51:23.226Z,80600.59
2022-11-28T15:53:01.463Z,80614.47
2022-11-28T15:54:41.730Z,80622.38
2022-11-28T15:56:16.467Z,80648.09
2022-11-28T15:57:50.359Z,80638.22
2022-11-28T15:59:25.059Z,80648.09
2022-11-28T16:01:16.683Z,80661.97
2022-11-28T16:02:51.292Z,80667.91
2022-11-28T16:04:29.322Z,80667.91
2022-11-28T16:06:04.311Z,80669.88
2022-11-28T16:07:43.192Z,80671.88
2022-11-28T16:09:20.089Z,80665.91
2022-11-28T16:10:53.385Z,80667.91
2022-11-28T16:12:27.900Z,80665.91
2022-11-28T16:14:09.522Z,80658.00
2022-11-28T16:15:50.055Z,80663.94
2022-11-28T16:17:28.240Z,80663.94
2022-11-28T16:19:06.882Z,80659.97
2022-11-28T16:20:40.397Z,80652.06
2022-11-28T16:22:20.353Z,80652.06
2022-11-28T16:23:54.147Z,80652.06
2022-11-28T16:25:28.870Z,80652.06
2022-11-28T16:27:05.105Z,80652.06
2022-11-28T16:28:41.193Z,80652.06
2022-11-28T16:30:26.376Z,80665.91
2022-11-28T16:32:37.100Z,80683.75
2022-11-28T16:34:15.512Z,80699.56
2022-11-28T16:35:49.458Z,80717.38
2022-11-28T16:37:27.773Z,80713.44
2022-11-28T16:39:19.759Z,80705.50
2022-11-28T16:41:01.837Z,80697.59
2022-11-28T16:42:36.097Z,80691.66
2022-11-28T16:44:14.976Z,80673.84
2022-11-28T16:45:57.262Z,80675.81
2022-11-28T16:47:33.725Z,80667.91
2022-11-28T16:49:25.603Z,80673.84
2022-11-28T16:51:13.896Z,80681.75
2022-11-28T16:52:51.910Z,80695.63
2022-11-28T16:54:32.554Z,80715.41
2022-11-28T16:56:06.163Z,80727.28
2022-11-28T16:57:48.099Z,80723.31
2022-11-28T16:59:21.496Z,80731.25
2022-11-28T17:01:00.936Z,80735.19
2022-11-28T17:02:34.609Z,80735.19
2022-11-28T17:04:26.968Z,80743.13
2022-11-28T17:06:00.404Z,80743.13
2022-11-28T17:07:34.071Z,80755.00
2022-11-28T17:09:10.302Z,80747.06
2022-11-28T17:10:47.534Z,80727.28
2022-11-28T17:12:39.903Z,80731.25
2022-11-28T17:14:14.296Z,80729.25
2022-11-28T17:15:48.325Z,80723.31
2022-11-28T17:17:26.437Z,80727.28
2022-11-28T17:19:00.291Z,80731.25
2022-11-28T17:20:34.357Z,80737.19
2022-11-28T17:22:11.355Z,80745.09
2022-11-28T17:23:44.855Z,80755.00
2022-11-28T17:25:21.871Z,80747.06
2022-11-28T17:26:56.144Z,80758.97
2022-11-28T17:28:29.836Z,80758.97
2022-11-28T17:30:03.271Z,80762.91
2022-11-28T17:31:36.915Z,80778.75
2022-11-28T17:33:15.895Z,80768.84
2022-11-28T17:34:50.663Z,80772.81
2022-11-28T17:36:26.978Z,80774.78
2022-11-28T17:38:00.324Z,80776.78
2022-11-28T17:39:33.931Z,80776.78
2022-11-28T17:41:15.228Z,80770.84
2022-11-28T17:42:48.469Z,80770.84
2022-11-28T17:44:52.862Z,80774.78
2022-11-28T17:46:27.220Z,80778.75
2022-11-28T17:48:03.218Z,80782.72
2022-11-28T17:49:39.593Z,80786.66
2022-11-28T17:51:15.707Z,80778.75
2022-11-28T17:52:50.176Z,80776.78
2022-11-28T17:54:25.967Z,80768.84
2022-11-28T17:56:02.287Z,80770.84
2022-11-28T17:57:36.594Z,80770.84
2022-11-28T17:59:13.812Z,80762.91
2022-11-28T18:00:49.140Z,80762.91
2022-11-28T18:02:26.018Z,80762.91
2022-11-28T18:04:00.783Z,80762.91
2022-11-28T18:05:41.410Z,80762.91
2022-11-28T18:07:15.504Z,80760.94
2022-11-28T18:08:52.139Z,80758.97
2022-11-28T18:10:25.812Z,80762.91
2022-11-28T18:11:59.553Z,80766.88
2022-11-28T18:13:34.614Z,80792.59
2022-11-28T18:15:08.062Z,80804.47
2022-11-28T18:16:44.306Z,80824.28
2022-11-28T18:18:18.164Z,80853.97
2022-11-28T18:19:57.292Z,80834.19
2022-11-28T18:21:32.317Z,80828.25
2022-11-28T18:23:05.848Z,80812.41
2022-11-28T18:24:39.538Z,80808.44
2022-11-28T18:26:23.412Z,80806.47
2022-11-28T18:27:57.232Z,80798.53
2022-11-28T18:29:31.116Z,80804.47
2022-11-28T18:31:13.446Z,80806.47
2022-11-28T18:32:47.562Z,80804.47
2022-11-28T18:34:23.885Z,80810.41
2022-11-28T18:36:17.403Z,80830.22
2022-11-28T18:37:51.868Z,80893.56
2022-11-28T18:39:25.543Z,80869.81
2022-11-28T18:41:06.565Z,80883.66
2022-11-28T18:42:42.317Z,80885.66
2022-11-28T18:44:15.995Z,80889.59
2022-11-28T18:45:49.614Z,80881.69
2022-11-28T18:47:25.302Z,80881.69
2022-11-28T18:49:00.434Z,80877.72
2022-11-28T18:50:35.915Z,80871.78
2022-11-28T18:52:09.527Z,80867.81
2022-11-28T18:53:43.339Z,80863.88
2022-11-28T18:55:17.891Z,80865.84
2022-11-28T18:56:54.932Z,80865.84
2022-11-28T18:58:32.518Z,80919.28
2022-11-28T19:00:07.442Z,80881.69
2022-11-28T19:01:42.283Z,80889.59
2022-11-28T19:03:16.761Z,80893.56
2022-11-28T19:04:50.051Z,80909.41
2022-11-28T19:06:24.335Z,80905.44
2022-11-28T19:07:58.432Z,80913.34
2022-11-28T19:09:31.794Z,80917.31
2022-11-28T19:11:10.117Z,80915.34
2022-11-28T19:12:43.924Z,80909.41
2022-11-28T19:14:19.482Z,80913.34
2022-11-28T19:15:52.838Z,80913.34
2022-11-28T19:17:29.869Z,80921.28
2022-11-28T19:19:05.368Z,80925.22
2022-11-28T19:20:43.723Z,80913.34
2022-11-28T19:22:16.916Z,80911.38
2022-11-28T19:23:51.076Z,80901.47
2022-11-28T19:25:24.300Z,80901.47
2022-11-28T19:26:58.032Z,80911.38
2022-11-28T19:28:31.574Z,80919.28
2022-11-28T19:30:06.430Z,80945.03
2022-11-28T19:31:48.020Z,80992.53
2022-11-28T19:33:24.924Z,81028.16
2022-11-28T19:34:58.449Z,81063.81
2022-11-28T19:36:35.964Z,81111.31
2022-11-28T19:38:11.674Z,81111.31
2022-11-28T19:39:45.902Z,81135.06
2022-11-28T19:41:22.389Z,81144.97
2022-11-28T19:42:56.199Z,81156.84
2022-11-28T19:44:31.406Z,81206.34